createdAt,value
2023-03-15T00:29:42.405Z,0
2023-03-15T00:30:22.893Z,0
2023-03-15T00:31:03.468Z,0
2023-03-15T00:35:46.882Z,0
2023-03-15T00:36:27.475Z,0
2023-03-15T00:37:08.046Z,0
2023-03-15T00:37:48.597Z,0
2023-03-15T00:38:29.039Z,0
2023-03-15T00:39:09.525Z,0
2023-03-15T00:39:50.066Z,0
2023-03-15T00:40:30.539Z,0
2023-03-15T00:41:11.040Z,0
2023-03-15T00:41:51.598Z,0
2023-03-15T00:48:36.931Z,0
2023-03-15T00:49:17.442Z,0
2023-03-15T00:49:57.980Z,0
2023-03-15T00:50:38.462Z,0
2023-03-15T00:51:18.967Z,0
2023-03-15T00:51:59.499Z,0
2023-03-15T00:52:40.010Z,0
2023-03-15T00:53:20.502Z,0
2023-03-15T00:54:00.993Z,0
2023-03-15T00:54:42.437Z,0
2023-03-15T01:02:07.212Z,0
2023-03-15T01:02:47.729Z,0
2023-03-15T01:03:28.092Z,0
2023-03-15T01:04:08.576Z,0
2023-03-15T01:04:49.036Z,0
2023-03-15T01:05:29.547Z,0
2023-03-15T01:06:10.092Z,0
2023-03-15T01:06:50.644Z,0
2023-03-15T01:07:31.967Z,0
2023-03-15T01:08:11.504Z,0
2023-03-15T01:15:36.983Z,0
2023-03-15T01:16:17.523Z,0
2023-03-15T01:16:58.156Z,0
2023-03-15T01:17:38.655Z,0
2023-03-15T01:18:19.137Z,0
2023-03-15T01:18:59.694Z,0
2023-03-15T01:19:40.160Z,0
2023-03-15T01:20:20.677Z,0
2023-03-15T01:21:01.199Z,0
2023-03-15T01:21:41.708Z,0
2023-03-15T01:28:26.860Z,0
2023-03-15T01:29:07.364Z,0
2023-03-15T01:29:47.860Z,0
2023-03-15T01:30:28.333Z,0
2023-03-15T01:31:08.989Z,0
2023-03-15T01:31:49.528Z,0
2023-03-15T01:33:10.951Z,0
2023-03-15T01:33:51.476Z,0
2023-03-15T01:39:56.910Z,0
2023-03-15T01:40:37.528Z,0
2023-03-15T01:41:18.021Z,0
2023-03-15T01:41:59.094Z,0
2023-03-15T01:42:39.895Z,0
2023-03-15T01:43:21.402Z,0
2023-03-15T01:44:00.875Z,0
2023-03-15T01:44:41.409Z,0
2023-03-15T01:49:26.952Z,0
2023-03-15T01:50:07.418Z,0
2023-03-15T01:50:49.043Z,0
2023-03-15T01:51:29.923Z,0
2023-03-15T01:52:11.061Z,0
2023-03-15T01:55:17.507Z,0
2023-03-15T01:56:05.200Z,0
2023-03-15T02:00:37.013Z,0
2023-03-15T02:01:19.741Z,0
2023-03-15T02:02:00.971Z,0
2023-03-15T02:02:42.811Z,0
2023-03-15T02:03:23.603Z,0
2023-03-15T02:06:08.474Z,0
2023-03-15T02:06:49.545Z,0
2023-03-15T02:07:31.143Z,0
2023-03-15T02:08:11.683Z,0
2023-03-15T02:08:53.411Z,0
2023-03-15T02:12:20.018Z,0
2023-03-15T02:13:00.786Z,0
2023-03-15T02:13:42.456Z,0
2023-03-15T02:16:22.790Z,0
2023-03-15T02:17:03.056Z,0
2023-03-15T02:17:43.552Z,0
2023-03-15T02:23:07.637Z,0
2023-03-15T02:23:48.081Z,0
2023-03-15T02:24:28.638Z,0
2023-03-15T02:25:09.149Z,0
2023-03-15T02:25:50.173Z,0
2023-03-15T02:26:30.666Z,0
2023-03-15T02:27:11.175Z,0
2023-03-15T02:27:51.644Z,0
2023-03-15T02:28:32.157Z,0
2023-03-15T02:35:57.836Z,0
2023-03-15T02:36:38.268Z,0
2023-03-15T02:37:18.744Z,0
2023-03-15T02:37:59.360Z,0
2023-03-15T02:38:39.768Z,0
2023-03-15T02:39:20.378Z,0
2023-03-15T02:40:00.788Z,0
2023-03-15T02:40:41.320Z,0
2023-03-15T02:41:21.897Z,0
2023-03-15T02:48:47.576Z,0
2023-03-15T02:49:28.946Z,0
2023-03-15T02:50:09.352Z,0
2023-03-15T02:50:49.860Z,0
2023-03-15T02:51:30.344Z,0
2023-03-15T02:52:10.854Z,0
2023-03-15T02:52:51.971Z,0
2023-03-15T02:58:17.468Z,0
2023-03-15T02:58:58.174Z,0
2023-03-15T02:59:39.429Z,0
2023-03-15T03:00:19.926Z,0
2023-03-15T03:01:00.401Z,0
2023-03-15T03:01:40.929Z,0
2023-03-15T03:02:21.523Z,0
2023-03-15T03:03:02.019Z,0
2023-03-15T03:07:47.317Z,0
2023-03-15T03:08:27.711Z,0
2023-03-15T03:09:08.217Z,0
2023-03-15T03:09:48.711Z,0
2023-03-15T03:12:18.103Z,0
2023-03-15T03:12:59.302Z,0
2023-03-15T03:13:40.133Z,0
2023-03-15T03:16:23.464Z,0
2023-03-15T03:17:03.596Z,0
2023-03-15T03:17:44.682Z,0
2023-03-15T03:18:25.104Z,0
2023-03-15T03:19:05.628Z,0
2023-03-15T03:19:46.249Z,0
2023-03-15T03:20:26.895Z,0
2023-03-15T03:21:07.393Z,0
2023-03-15T03:27:13.901Z,0
2023-03-15T03:27:53.638Z,0
2023-03-15T03:28:34.090Z,0
2023-03-15T03:29:14.843Z,0
2023-03-15T03:29:55.514Z,0
2023-03-15T03:30:36.075Z,0
2023-03-15T03:31:16.625Z,0
2023-03-15T03:31:57.059Z,0
2023-03-15T03:38:13.608Z,0
2023-03-15T03:38:54.750Z,0
2023-03-15T03:39:36.602Z,0
2023-03-15T03:46:22.713Z,0
2023-03-15T03:47:02.992Z,0
2023-03-15T03:47:43.646Z,0
2023-03-15T03:48:24.183Z,0
2023-03-15T03:49:07.425Z,0
2023-03-15T03:49:47.888Z,0
2023-03-15T03:53:13.349Z,0
2023-03-15T03:53:53.111Z,0
2023-03-15T03:54:33.564Z,0
2023-03-15T03:55:14.029Z,0
2023-03-15T03:55:54.645Z,0
2023-03-15T03:56:35.068Z,0
2023-03-15T03:57:15.546Z,0
2023-03-15T03:57:56.006Z,0
2023-03-15T03:58:36.449Z,0
2023-03-15T03:59:16.931Z,0
2023-03-15T04:06:42.502Z,0
2023-03-15T04:07:22.969Z,0
2023-03-15T04:08:03.462Z,0
2023-03-15T04:08:43.995Z,0
2023-03-15T04:09:24.448Z,0
2023-03-15T04:10:04.933Z,0
2023-03-15T04:10:45.481Z,0
2023-03-15T04:11:25.921Z,0
2023-03-15T04:12:06.636Z,0
2023-03-15T04:12:46.912Z,0
2023-03-15T04:17:32.540Z,0
2023-03-15T04:18:13.100Z,0
2023-03-15T04:18:53.592Z,0
2023-03-15T04:19:34.136Z,0
2023-03-15T04:20:14.753Z,0
2023-03-15T04:20:55.186Z,0
2023-03-15T04:21:35.699Z,0
2023-03-15T04:22:16.273Z,0
2023-03-15T04:22:56.779Z,0
2023-03-15T04:23:37.257Z,0
2023-03-15T04:30:22.499Z,0
2023-03-15T04:31:03.002Z,0
2023-03-15T04:31:43.843Z,0
2023-03-15T04:32:24.326Z,0
2023-03-15T04:33:04.764Z,0
2023-03-15T04:33:45.307Z,0
2023-03-15T04:34:26.081Z,0
2023-03-15T04:38:36.518Z,0
2023-03-15T04:39:16.799Z,0
2023-03-15T04:42:02.783Z,0
2023-03-15T04:42:43.153Z,0
2023-03-15T04:43:23.654Z,0
2023-03-15T04:44:04.136Z,0
2023-03-15T04:44:44.598Z,0
2023-03-15T04:45:25.320Z,0
2023-03-15T04:48:52.431Z,0
2023-03-15T04:49:32.949Z,0
2023-03-15T04:50:13.456Z,0
2023-03-15T04:50:53.940Z,0
2023-03-15T04:51:34.452Z,0
2023-03-15T04:52:14.899Z,0
2023-03-15T04:52:55.423Z,0
2023-03-15T04:55:34.713Z,0
2023-03-15T04:56:15.083Z,0
2023-03-15T04:56:55.562Z,0
2023-03-15T05:01:39.129Z,0
2023-03-15T05:02:19.638Z,0
2023-03-15T05:03:00.119Z,0
2023-03-15T05:03:40.602Z,0
2023-03-15T05:04:21.110Z,0
2023-03-15T05:05:01.631Z,0
2023-03-15T05:05:42.065Z,0
2023-03-15T05:07:03.068Z,0
2023-03-15T05:07:43.631Z,0
2023-03-15T05:13:49.033Z,0
2023-03-15T05:14:29.524Z,0
2023-03-15T05:15:10.128Z,0
2023-03-15T05:15:50.504Z,0
2023-03-15T05:16:31.036Z,0
2023-03-15T05:17:11.508Z,0
2023-03-15T05:17:52.072Z,0
2023-03-15T05:18:32.549Z,0
2023-03-15T05:19:13.077Z,0
2023-03-15T05:19:53.580Z,0
2023-03-15T05:27:19.048Z,0
2023-03-15T05:27:59.539Z,0
2023-03-15T05:28:40.086Z,0
2023-03-15T05:29:20.585Z,0
2023-03-15T05:30:01.152Z,0
2023-03-15T05:30:41.625Z,0
2023-03-15T05:31:22.193Z,0
2023-03-15T05:32:02.729Z,0
2023-03-15T05:32:43.188Z,0
2023-03-15T05:33:23.619Z,0
2023-03-15T05:40:49.295Z,0
2023-03-15T05:41:29.813Z,0
2023-03-15T05:42:10.347Z,0
2023-03-15T05:42:50.914Z,0
2023-03-15T05:43:31.385Z,0
2023-03-15T05:44:11.834Z,0
2023-03-15T05:44:52.351Z,0
2023-03-15T05:45:32.880Z,0
2023-03-15T05:46:13.429Z,0
2023-03-15T05:46:54.013Z,0
2023-03-15T05:52:59.328Z,0
2023-03-15T05:53:39.874Z,0
2023-03-15T06:31:51.269Z,0
2023-03-15T06:32:31.640Z,0
2023-03-15T06:33:12.082Z,0
2023-03-15T06:33:52.558Z,0
2023-03-15T06:37:55.490Z,0
2023-03-15T06:38:35.963Z,0
2023-03-15T06:39:16.463Z,0
2023-03-15T06:39:57.065Z,0
2023-03-15T06:40:37.611Z,0
2023-03-15T06:41:18.127Z,0
2023-03-15T06:41:58.737Z,0
2023-03-15T06:42:39.199Z,0
2023-03-15T06:43:19.728Z,0
2023-03-15T06:49:25.257Z,0
2023-03-15T06:50:06.714Z,0
2023-03-15T06:50:47.916Z,0
2023-03-15T06:51:27.788Z,0
2023-03-15T06:52:08.276Z,0
2023-03-15T06:52:48.754Z,0
2023-03-15T06:53:29.248Z,0
2023-03-15T06:54:09.715Z,0
2023-03-15T07:01:35.592Z,10
2023-03-15T07:02:17.126Z,10
2023-03-15T07:03:05.546Z,10
2023-03-15T07:03:46.288Z,10
2023-03-15T07:04:27.016Z,5
2023-03-15T07:05:07.619Z,5
2023-03-15T07:05:48.231Z,5
2023-03-15T07:06:28.961Z,5
2023-03-15T07:13:15.407Z,5
2023-03-15T07:13:55.880Z,5
2023-03-15T07:14:36.501Z,5
2023-03-15T07:15:17.701Z,0
2023-03-15T07:17:59.879Z,0
2023-03-15T07:18:40.532Z,0
2023-03-15T07:19:21.041Z,0
2023-03-15T07:20:01.616Z,0
2023-03-15T07:20:42.290Z,0
2023-03-15T07:26:09.582Z,5
2023-03-15T07:26:52.451Z,5
2023-03-15T07:27:32.877Z,5
2023-03-15T07:28:13.501Z,5
2023-03-15T07:28:54.100Z,5
2023-03-15T07:34:51.703Z,10
2023-03-15T07:35:32.645Z,10
2023-03-15T07:36:13.173Z,10
2023-03-15T07:41:33.749Z,25
2023-03-15T07:42:14.377Z,25
2023-03-15T07:42:55.965Z,30
2023-03-15T07:43:37.343Z,35
2023-03-15T07:44:18.742Z,40
2023-03-15T07:44:59.676Z,40
2023-03-15T07:45:40.288Z,45
2023-03-15T07:46:21.454Z,35
2023-03-15T07:47:42.890Z,50
2023-03-15T07:51:48.575Z,80
2023-03-15T07:52:29.322Z,90
2023-03-15T07:55:45.328Z,80
2023-03-15T07:56:26.026Z,75
2023-03-15T07:57:06.690Z,65
2023-03-15T07:57:52.221Z,40
2023-03-15T07:58:30.645Z,40
2023-03-15T07:59:11.850Z,45
2023-03-15T07:59:53.007Z,45
2023-03-15T08:00:34.030Z,40
2023-03-15T08:03:59.561Z,25
2023-03-15T08:04:40.264Z,25
2023-03-15T08:05:20.976Z,25
2023-03-15T08:06:01.716Z,25
2023-03-15T08:06:42.385Z,20
2023-03-15T08:11:03.087Z,30
2023-03-15T08:11:44.057Z,25
2023-03-15T08:12:23.901Z,25
2023-03-15T08:15:46.933Z,20
2023-03-15T08:16:27.788Z,20
2023-03-15T08:17:08.327Z,15
2023-03-15T08:17:49.069Z,15
2023-03-15T08:18:30.255Z,10
2023-03-15T08:19:10.655Z,10
2023-03-15T08:19:51.996Z,10
2023-03-15T08:21:57.107Z,10
2023-03-15T08:22:38.520Z,10
2023-03-15T08:26:19.036Z,10
2023-03-15T08:26:59.518Z,10
2023-03-15T08:27:40.231Z,10
2023-03-15T08:30:22.872Z,10
2023-03-15T08:31:03.420Z,10
2023-03-15T08:31:44.236Z,10
2023-03-15T08:32:24.587Z,10
2023-03-15T08:33:05.383Z,10
2023-03-15T08:33:45.872Z,10
2023-03-15T08:34:26.394Z,10
2023-03-15T08:35:06.935Z,10
2023-03-15T08:45:26.979Z,15
2023-03-15T08:48:48.209Z,15
2023-03-15T08:49:28.781Z,15
2023-03-15T08:50:09.298Z,15
2023-03-15T08:50:51.657Z,15
2023-03-15T08:51:32.364Z,15
2023-03-15T08:52:12.878Z,20
2023-03-15T08:56:34.218Z,25
2023-03-15T08:57:14.873Z,25
2023-03-15T08:57:56.556Z,30
2023-03-15T08:58:38.667Z,30
2023-03-15T08:59:31.148Z,25
2023-03-15T09:00:00.664Z,25
2023-03-15T09:00:41.997Z,25
2023-03-15T09:01:23.106Z,30
2023-03-15T09:04:09.232Z,30
2023-03-15T09:04:50.336Z,30
2023-03-15T09:05:30.283Z,30
2023-03-15T09:06:11.997Z,30
2023-03-15T09:10:51.480Z,40
2023-03-15T09:11:32.979Z,40
2023-03-15T09:14:15.855Z,35
2023-03-15T09:14:56.865Z,35
2023-03-15T09:15:38.145Z,35
2023-03-15T09:16:21.073Z,40
2023-03-15T09:19:36.257Z,35
2023-03-15T09:20:16.808Z,30
2023-03-15T09:20:57.691Z,30
2023-03-15T09:23:01.229Z,25
2023-03-15T09:23:41.770Z,25
2023-03-15T09:24:23.117Z,30
2023-03-15T09:25:03.771Z,25
2023-03-15T09:25:44.171Z,35
2023-03-15T09:26:24.818Z,30
2023-03-15T09:27:05.437Z,30
2023-03-15T09:27:45.964Z,30
2023-03-15T09:33:11.265Z,40
2023-03-15T09:33:51.824Z,40
2023-03-15T09:34:39.785Z,40
2023-03-15T09:37:13.580Z,40
2023-03-15T09:37:53.534Z,40
2023-03-15T09:38:34.081Z,40
2023-03-15T09:39:14.765Z,40
2023-03-15T09:39:55.792Z,40
2023-03-15T09:40:37.145Z,40
2023-03-15T09:41:17.613Z,40
2023-03-15T09:41:59.750Z,40
2023-03-15T09:42:40.332Z,40
2023-03-15T09:49:26.700Z,55
2023-03-15T09:50:07.943Z,45
2023-03-15T09:50:48.541Z,45
2023-03-15T09:51:29.064Z,45
2023-03-15T09:52:09.670Z,55
2023-03-15T09:52:50.226Z,55
2023-03-15T09:59:36.003Z,45
2023-03-15T10:00:17.353Z,45
2023-03-15T10:00:57.809Z,35
2023-03-15T10:01:38.320Z,45
2023-03-15T10:02:18.849Z,45
2023-03-15T10:02:59.398Z,45
2023-03-15T10:03:40.190Z,45
2023-03-15T10:04:20.543Z,45
2023-03-15T10:08:16.314Z,45
2023-03-15T10:08:57.424Z,45
2023-03-15T10:09:38.034Z,45
2023-03-15T10:12:21.199Z,45
2023-03-15T10:16:16.207Z,50
2023-03-15T10:16:56.983Z,45
2023-03-15T10:17:38.102Z,45
2023-03-15T10:20:58.438Z,45
2023-03-15T10:21:39.077Z,40
2023-03-15T10:22:19.640Z,40
2023-03-15T10:25:02.374Z,30
2023-03-15T10:25:42.891Z,25
2023-03-15T10:26:23.361Z,25
2023-03-15T10:27:03.868Z,25
2023-03-15T10:27:44.559Z,25
2023-03-15T10:28:25.011Z,25
2023-03-15T10:31:04.558Z,45
2023-03-15T10:31:45.336Z,45
2023-03-15T10:32:26.716Z,45
2023-03-15T10:33:09.009Z,45
2023-03-15T10:33:49.422Z,45
2023-03-15T10:34:30.597Z,45
2023-03-15T10:35:12.178Z,45
2023-03-15T10:35:58.573Z,45
2023-03-15T10:38:38.328Z,30
2023-03-15T10:39:20.246Z,30
2023-03-15T10:40:01.331Z,30
2023-03-15T10:40:42.359Z,30
2023-03-15T10:43:38.619Z,25
2023-03-15T10:44:19.086Z,30
2023-03-15T10:44:59.525Z,45
2023-03-15T10:50:18.320Z,45
2023-03-15T10:50:59.332Z,45
2023-03-15T10:51:39.291Z,45
2023-03-15T10:52:19.850Z,45
2023-03-15T10:56:55.045Z,45
2023-03-15T10:57:35.631Z,30
2023-03-15T10:58:16.146Z,30
2023-03-15T11:03:00.055Z,35
2023-03-15T11:03:40.582Z,45
2023-03-15T11:04:21.225Z,45
2023-03-15T11:05:01.717Z,30
2023-03-15T11:05:42.229Z,30
2023-03-15T11:06:23.293Z,30
2023-03-15T11:07:03.957Z,45
2023-03-15T11:07:44.501Z,45
2023-03-15T11:12:30.343Z,30
2023-03-15T11:13:11.796Z,40
2023-03-15T11:13:53.734Z,40
2023-03-15T11:14:34.688Z,30
2023-03-15T11:19:19.886Z,30
2023-03-15T11:20:02.484Z,40
2023-03-15T11:20:43.112Z,45
2023-03-15T11:22:09.961Z,45
2023-03-15T11:22:52.524Z,45
2023-03-15T11:24:25.186Z,30
2023-03-15T11:29:48.143Z,45
2023-03-15T11:30:28.839Z,45
2023-03-15T11:31:10.331Z,45
2023-03-15T11:31:51.251Z,45
2023-03-15T11:32:32.990Z,25
2023-03-15T11:33:13.929Z,25
2023-03-15T11:37:36.428Z,40
2023-03-15T11:38:17.195Z,45
2023-03-15T11:38:58.780Z,45
2023-03-15T11:39:39.919Z,45
2023-03-15T11:41:01.285Z,30
2023-03-15T11:41:42.388Z,45
2023-03-15T11:42:23.207Z,45
2023-03-15T11:43:03.927Z,45
2023-03-15T11:43:44.396Z,45
2023-03-15T11:44:25.153Z,45
2023-03-15T11:49:10.967Z,50
2023-03-15T11:49:54.216Z,30
2023-03-15T11:54:00.670Z,30
2023-03-15T12:32:21.884Z,25
2023-03-15T12:33:01.934Z,25
2023-03-15T12:33:42.345Z,25
2023-03-15T12:38:26.069Z,40
2023-03-15T12:39:06.613Z,40
2023-03-15T12:39:47.138Z,40
2023-03-15T12:40:27.782Z,45
2023-03-15T12:41:08.248Z,45
2023-03-15T12:41:48.762Z,40
2023-03-15T12:42:29.304Z,45
2023-03-15T12:43:09.904Z,40
2023-03-15T12:43:50.401Z,40
2023-03-15T12:44:30.901Z,40
2023-03-15T12:50:36.191Z,40
2023-03-15T12:51:16.760Z,40
2023-03-15T12:51:59.209Z,40
2023-03-15T12:52:37.813Z,40
2023-03-15T12:53:18.487Z,40
2023-03-15T12:53:59.047Z,40
2023-03-15T12:54:39.668Z,40
2023-03-15T12:55:20.414Z,40
2023-03-15T12:56:08.416Z,40
2023-03-15T13:01:26.435Z,45
2023-03-15T13:02:07.709Z,45
2023-03-15T13:02:48.270Z,45
2023-03-15T13:03:29.546Z,45
2023-03-15T13:06:51.189Z,45
2023-03-15T13:07:33.114Z,45
2023-03-15T13:08:12.416Z,45
2023-03-15T13:10:54.671Z,45
2023-03-15T13:11:35.654Z,40
2023-03-15T13:12:16.205Z,30
2023-03-15T13:12:56.756Z,40
2023-03-15T13:13:37.240Z,40
2023-03-15T13:14:17.802Z,45
2023-03-15T13:14:58.459Z,45
2023-03-15T13:15:40.668Z,40
2023-03-15T13:22:24.936Z,50
2023-03-15T13:23:06.125Z,50
2023-03-15T13:23:46.221Z,45
2023-03-15T13:24:26.869Z,45
2023-03-15T13:25:07.518Z,45
2023-03-15T13:25:48.162Z,45
2023-03-15T13:26:28.601Z,45
2023-03-15T13:27:09.188Z,45
2023-03-15T13:33:52.698Z,45
2023-03-15T13:34:33.844Z,45
2023-03-15T13:35:14.896Z,45
2023-03-15T13:38:38.001Z,40
2023-03-15T13:39:18.556Z,40
2023-03-15T13:39:59.011Z,40
2023-03-15T13:40:39.590Z,40
2023-03-15T13:41:20.571Z,40
2023-03-15T13:42:01.312Z,40
2023-03-15T13:42:41.852Z,40
2023-03-15T13:45:01.803Z,35
2023-03-15T13:45:42.413Z,35
2023-03-15T13:46:23.206Z,35
2023-03-15T13:48:25.446Z,35
2023-03-15T13:49:06.145Z,35
2023-03-15T13:49:46.959Z,35
2023-03-15T13:50:27.868Z,35
2023-03-15T13:51:08.549Z,35
2023-03-15T13:51:49.279Z,35
2023-03-15T13:52:29.739Z,35
2023-03-15T13:57:55.328Z,35
2023-03-15T13:58:36.019Z,35
2023-03-15T13:59:16.724Z,35
2023-03-15T13:59:59.255Z,35
2023-03-15T14:02:46.204Z,35
2023-03-15T14:03:26.713Z,35
2023-03-15T14:04:07.334Z,35
2023-03-15T14:04:48.406Z,35
2023-03-15T14:05:29.139Z,35
2023-03-15T14:06:09.668Z,35
2023-03-15T14:12:15.348Z,40
2023-03-15T14:12:55.878Z,40
2023-03-15T14:13:36.327Z,40
2023-03-15T14:14:16.815Z,40
2023-03-15T14:14:57.370Z,40
2023-03-15T14:15:37.907Z,40
2023-03-15T14:16:18.576Z,40
2023-03-15T14:17:05.156Z,35
2023-03-15T14:17:39.833Z,40
2023-03-15T14:24:05.950Z,40
2023-03-15T14:24:54.182Z,40
2023-03-15T14:25:48.647Z,40
2023-03-15T14:28:10.525Z,35
2023-03-15T14:28:52.720Z,35
2023-03-15T14:29:35.034Z,35
2023-03-15T14:30:15.631Z,35
2023-03-15T14:30:56.363Z,35
2023-03-15T14:31:37.205Z,40
2023-03-15T14:38:34.724Z,30
2023-03-15T14:39:15.292Z,30
2023-03-15T14:39:55.855Z,30
2023-03-15T14:46:15.396Z,35
2023-03-15T14:46:55.720Z,35
2023-03-15T14:47:45.401Z,35
2023-03-15T14:49:38.592Z,30
2023-03-15T14:50:19.086Z,30
2023-03-15T14:50:59.608Z,30
2023-03-15T14:51:40.133Z,30
2023-03-15T14:52:20.666Z,30
2023-03-15T14:53:02.123Z,35
2023-03-15T14:53:42.690Z,35
2023-03-15T14:54:23.180Z,35
2023-03-15T14:56:51.337Z,35
2023-03-15T14:57:31.906Z,35
2023-03-15T14:58:12.337Z,35
2023-03-15T15:02:56.063Z,35
2023-03-15T15:03:36.622Z,35
2023-03-15T15:04:17.080Z,30
2023-03-15T15:04:57.762Z,30
2023-03-15T15:05:38.194Z,30
2023-03-15T15:12:22.716Z,30
2023-03-15T15:13:06.610Z,30
2023-03-15T15:13:44.214Z,30
2023-03-15T15:14:24.791Z,30
2023-03-15T15:15:05.200Z,30
2023-03-15T15:15:54.976Z,30
2023-03-15T15:16:26.219Z,30
2023-03-15T15:17:06.687Z,30
2023-03-15T15:17:47.217Z,30
2023-03-15T15:22:33.591Z,35
2023-03-15T15:23:14.068Z,35
2023-03-15T15:23:58.734Z,35
2023-03-15T15:26:27.814Z,45
2023-03-15T15:27:08.503Z,65
2023-03-15T15:27:48.961Z,85
2023-03-15T15:31:49.463Z,75
2023-03-15T15:32:30.022Z,55
2023-03-15T15:33:10.595Z,35
2023-03-15T15:37:45.725Z,25
2023-03-15T15:38:26.774Z,25
2023-03-15T15:39:07.850Z,25
2023-03-15T16:15:01.635Z,15
2023-03-15T16:15:42.022Z,15
2023-03-15T16:16:22.405Z,15
2023-03-15T16:21:46.415Z,10
2023-03-15T16:22:26.919Z,10
2023-03-15T16:23:07.381Z,10
2023-03-15T16:23:47.856Z,10
2023-03-15T16:24:28.354Z,10
2023-03-15T16:25:08.832Z,10
2023-03-15T16:25:49.349Z,10
2023-03-15T16:27:10.325Z,10
2023-03-15T16:27:50.828Z,10
2023-03-15T16:35:16.383Z,10
2023-03-15T16:35:56.863Z,10
2023-03-15T16:36:37.382Z,10
2023-03-15T16:37:17.830Z,10
2023-03-15T16:37:58.344Z,10
2023-03-15T16:38:38.843Z,10
2023-03-15T16:39:19.420Z,10
2023-03-15T16:39:59.815Z,5
2023-03-15T16:40:40.375Z,5
2023-03-15T16:41:20.826Z,5
2023-03-15T16:48:46.151Z,5
2023-03-15T16:49:26.645Z,5
2023-03-15T16:50:07.230Z,5
2023-03-15T16:50:47.678Z,5
2023-03-15T16:52:08.658Z,5
2023-03-15T16:52:49.150Z,5
2023-03-15T16:53:29.685Z,5
2023-03-15T16:54:19.801Z,5
2023-03-15T16:54:50.617Z,5
2023-03-15T17:02:16.108Z,5
2023-03-15T17:02:56.616Z,5
2023-03-15T17:03:37.092Z,5
2023-03-15T17:04:17.621Z,5
2023-03-15T17:04:58.072Z,5
2023-03-15T17:05:38.547Z,5
2023-03-15T17:06:19.029Z,0
2023-03-15T17:06:59.497Z,0
2023-03-15T17:07:40.025Z,0
2023-03-15T17:08:20.484Z,0
2023-03-15T17:09:00.986Z,0
2023-03-15T17:16:26.364Z,0
2023-03-15T17:17:06.812Z,0
2023-03-15T17:17:47.287Z,0
2023-03-15T17:18:27.811Z,0
2023-03-15T17:19:48.780Z,0
2023-03-15T17:20:29.269Z,0
2023-03-15T17:21:09.748Z,0
2023-03-15T17:21:51.127Z,0
2023-03-15T17:28:36.117Z,0
2023-03-15T17:29:16.599Z,0
2023-03-15T17:29:57.082Z,0
2023-03-15T17:30:37.631Z,0
2023-03-15T17:31:24.810Z,0
2023-03-15T17:31:58.646Z,0
2023-03-15T17:32:39.107Z,0
2023-03-15T17:33:19.576Z,0
2023-03-15T17:34:00.037Z,0
2023-03-15T17:34:40.504Z,0
2023-03-15T17:42:05.975Z,0
2023-03-15T17:42:46.483Z,0
2023-03-15T17:43:26.989Z,0
2023-03-15T17:44:07.473Z,0
2023-03-15T17:44:47.977Z,0
2023-03-15T17:45:28.445Z,0
2023-03-15T17:46:08.963Z,0
2023-03-15T17:46:49.563Z,0
2023-03-15T17:47:29.962Z,0
2023-03-15T17:48:10.510Z,0
2023-03-15T18:34:08.066Z,0
2023-03-15T18:34:49.204Z,0
2023-03-15T18:35:29.769Z,0
2023-03-15T18:38:52.172Z,0
2023-03-15T18:39:32.675Z,0
2023-03-15T18:40:13.152Z,0
2023-03-15T18:40:53.651Z,0
2023-03-15T18:41:34.253Z,0
2023-03-15T18:42:14.666Z,0
2023-03-15T18:42:55.134Z,0
2023-03-15T18:43:35.580Z,0
2023-03-15T18:44:16.098Z,0
2023-03-15T18:44:56.582Z,0
2023-03-15T18:45:37.210Z,0
2023-03-15T18:53:03.974Z,0
2023-03-15T18:53:42.914Z,0
2023-03-15T18:54:23.370Z,0
2023-03-15T18:55:03.914Z,0
2023-03-15T18:55:44.309Z,0
2023-03-15T18:56:24.802Z,0
2023-03-15T18:57:05.344Z,0
2023-03-15T18:58:26.324Z,0
2023-03-15T18:59:06.762Z,0
2023-03-15T19:06:32.164Z,0
2023-03-15T19:07:12.629Z,0
2023-03-15T19:07:53.126Z,0
2023-03-15T19:08:33.605Z,0
2023-03-15T19:09:14.132Z,0
2023-03-15T19:09:54.661Z,0
2023-03-15T19:10:35.124Z,0
2023-03-15T19:11:15.600Z,0
2023-03-15T19:11:56.051Z,0
2023-03-15T19:12:36.557Z,0
2023-03-15T19:13:17.076Z,0
2023-03-15T19:20:42.562Z,0
2023-03-15T19:21:22.950Z,0
2023-03-15T19:22:03.425Z,0
2023-03-15T19:22:43.918Z,0
2023-03-15T19:23:24.369Z,0
2023-03-15T19:24:04.847Z,0
2023-03-15T19:24:45.353Z,0
2023-03-15T19:26:06.364Z,0
2023-03-15T19:26:46.846Z,0
2023-03-15T19:34:12.162Z,0
2023-03-15T19:34:52.625Z,0
2023-03-15T19:35:33.663Z,0
2023-03-15T19:36:13.643Z,0
2023-03-15T19:36:54.071Z,0
2023-03-15T19:37:34.584Z,0
2023-03-15T19:38:15.012Z,0
2023-03-15T19:38:55.504Z,0
2023-03-15T19:39:35.971Z,0
2023-03-15T19:40:16.500Z,0
2023-03-15T19:40:56.959Z,0
2023-03-15T19:48:22.353Z,0
2023-03-15T19:49:02.863Z,0
2023-03-15T19:49:43.333Z,0
2023-03-15T19:50:23.913Z,0
2023-03-15T19:51:04.286Z,0
2023-03-15T19:51:44.780Z,0
2023-03-15T19:52:25.251Z,0
2023-03-15T19:53:05.734Z,0
2023-03-15T19:53:46.206Z,0
2023-03-15T19:54:26.746Z,0
2023-03-15T19:55:07.173Z,0
2023-03-15T20:01:12.711Z,0
2023-03-15T20:01:53.113Z,0
2023-03-15T20:02:33.620Z,0
2023-03-15T20:03:14.055Z,0
2023-03-15T20:03:54.640Z,0
2023-03-15T20:04:35.033Z,0
2023-03-15T20:05:15.586Z,0
2023-03-15T20:05:56.042Z,0
2023-03-15T20:06:36.506Z,0
2023-03-15T20:07:17.029Z,0
2023-03-15T20:14:42.322Z,0
2023-03-15T20:15:22.811Z,0
2023-03-15T20:16:03.387Z,0
2023-03-15T20:16:43.809Z,0
2023-03-15T20:17:24.284Z,0
2023-03-15T20:18:04.761Z,0
2023-03-15T20:18:45.252Z,0
2023-03-15T20:19:25.742Z,0
2023-03-15T20:20:06.378Z,0
2023-03-15T20:20:46.789Z,0
2023-03-15T20:28:12.242Z,0
2023-03-15T20:28:52.685Z,0
2023-03-15T20:29:33.178Z,0
2023-03-15T20:30:13.691Z,0
2023-03-15T20:30:54.175Z,0
2023-03-15T20:31:34.779Z,0
2023-03-15T20:32:15.145Z,0
2023-03-15T20:32:55.660Z,0
2023-03-15T20:33:36.134Z,0
2023-03-15T20:34:16.606Z,0
2023-03-15T20:34:57.111Z,0
2023-03-15T20:42:22.430Z,0
2023-03-15T20:43:02.927Z,0
2023-03-15T20:43:43.460Z,0
2023-03-15T20:44:23.897Z,0
2023-03-15T20:45:04.371Z,0
2023-03-15T20:45:44.850Z,0
2023-03-15T20:46:25.371Z,0
2023-03-15T20:47:05.827Z,0
2023-03-15T20:47:46.282Z,0
2023-03-15T20:48:26.747Z,0
2023-03-15T20:56:32.440Z,0
2023-03-15T20:57:12.937Z,0
2023-03-15T20:57:53.575Z,0
2023-03-15T20:58:33.872Z,0
2023-03-15T20:59:14.399Z,0
2023-03-15T20:59:55.000Z,0
2023-03-15T21:00:35.408Z,0
2023-03-15T21:01:15.972Z,0
2023-03-15T21:01:56.388Z,0
2023-03-15T21:02:36.874Z,0
2023-03-15T21:09:22.447Z,0
2023-03-15T21:10:03.915Z,0
2023-03-15T21:10:44.376Z,0
2023-03-15T21:11:24.878Z,0
2023-03-15T21:13:37.541Z,0
2023-03-15T21:14:18.029Z,0
2023-03-15T21:14:58.541Z,0
2023-03-15T21:20:22.855Z,0
2023-03-15T21:21:03.067Z,0
2023-03-15T21:21:43.547Z,0
2023-03-15T21:22:24.073Z,0
2023-03-15T21:23:04.525Z,0
2023-03-15T21:23:45.063Z,0
2023-03-15T21:24:25.589Z,0
2023-03-15T21:25:06.033Z,0
2023-03-15T21:25:46.504Z,0
2023-03-15T21:26:27.001Z,0
2023-03-15T21:33:52.192Z,0
2023-03-15T21:34:32.687Z,0
2023-03-15T21:35:13.160Z,0
2023-03-15T21:35:53.684Z,0
2023-03-15T21:36:34.179Z,0
2023-03-15T21:37:14.671Z,0
2023-03-15T21:37:55.155Z,0
2023-03-15T21:39:16.098Z,0
2023-03-15T21:39:56.608Z,0
2023-03-15T21:40:37.065Z,0
2023-03-15T21:48:02.371Z,0
2023-03-15T21:48:42.872Z,0
2023-03-15T21:49:23.357Z,0
2023-03-15T21:50:03.852Z,0
2023-03-15T21:50:44.353Z,0
2023-03-15T21:51:25.408Z,0
2023-03-15T21:52:05.903Z,0
2023-03-15T21:52:46.378Z,0
2023-03-15T21:53:26.912Z,0
2023-03-15T22:00:52.348Z,0
2023-03-15T22:01:32.927Z,0
2023-03-15T22:02:13.345Z,0
2023-03-15T22:02:55.670Z,0
2023-03-15T22:03:34.345Z,0
2023-03-15T22:04:14.861Z,0
2023-03-15T22:04:55.341Z,0
2023-03-15T22:05:35.836Z,0
2023-03-15T22:06:56.833Z,0
2023-03-15T22:13:42.559Z,0
2023-03-15T22:14:23.027Z,0
2023-03-15T22:15:06.714Z,0
2023-03-15T22:15:43.986Z,0
2023-03-15T22:16:24.501Z,0
2023-03-15T22:17:05.091Z,0
2023-03-15T22:17:45.419Z,0
2023-03-15T22:18:25.894Z,0
2023-03-15T22:19:06.385Z,0
2023-03-15T22:19:46.883Z,0
2023-03-15T22:27:12.303Z,0
2023-03-15T22:27:52.810Z,0
2023-03-15T22:28:33.295Z,0
2023-03-15T22:29:13.795Z,0
2023-03-15T22:29:54.253Z,0
2023-03-15T22:30:34.800Z,0
2023-03-15T22:31:15.297Z,0
2023-03-15T22:31:55.735Z,0
2023-03-15T22:32:36.301Z,0
2023-03-15T22:33:16.692Z,0
2023-03-15T22:41:22.560Z,0
2023-03-15T22:42:03.079Z,0
2023-03-15T22:42:43.510Z,0
2023-03-15T22:43:24.043Z,0
2023-03-15T22:44:04.529Z,0
2023-03-15T22:44:45.008Z,0
2023-03-15T22:45:25.510Z,0
2023-03-15T22:46:06.101Z,0
2023-03-15T22:46:46.472Z,0
2023-03-15T22:47:26.894Z,0
2023-03-15T22:54:52.289Z,0
2023-03-15T22:55:32.797Z,0
2023-03-15T22:56:13.282Z,0
2023-03-15T22:56:54.474Z,0
2023-03-15T22:57:35.012Z,0